sensor_id;sensor_type;location;lat;lon;timestamp;temperature;humidity
42913;DHT22;50720;54.324;18.558;2023-06-14T00:01:05;14.70;99.90
42913;DHT22;50720;54.324;18.558;2023-06-14T00:03:44;14.70;99.90
42913;DHT22;50720;54.324;18.558;2023-06-14T00:06:15;14.60;99.90
42913;DHT22;50720;54.324;18.558;2023-06-14T00:08:44;14.60;99.90
42913;DHT22;50720;54.324;18.558;2023-06-14T00:11:14;14.60;99.90
42913;DHT22;50720;54.324;18.558;2023-06-14T00:13:44;14.50;99.90
42913;DHT22;50720;54.324;18.558;2023-06-14T00:16:14;14.50;99.90
42913;DHT22;50720;54.324;18.558;2023-06-14T00:18:44;14.40;99.90
42913;DHT22;50720;54.324;18.558;2023-06-14T00:21:13;14.40;99.90
42913;DHT22;50720;54.324;18.558;2023-06-14T00:23:42;14.40;99.90
42913;DHT22;50720;54.324;18.558;2023-06-14T00:26:12;14.50;99.90
42913;DHT22;50720;54.324;18.558;2023-06-14T00:28:42;14.60;99.90
42913;DHT22;50720;54.324;18.558;2023-06-14T00:31:13;14.60;99.90
42913;DHT22;50720;54.324;18.558;2023-06-14T00:33:43;14.70;99.90
42913;DHT22;50720;54.324;18.558;2023-06-14T00:36:13;14.70;99.90
42913;DHT22;50720;54.324;18.558;2023-06-14T00:38:42;14.60;99.90
42913;DHT22;50720;54.324;18.558;2023-06-14T00:41:11;14.70;99.90
42913;DHT22;50720;54.324;18.558;2023-06-14T00:43:41;14.60;99.90
42913;DHT22;50720;54.324;18.558;2023-06-14T00:46:10;14.70;99.90
42913;DHT22;50720;54.324;18.558;2023-06-14T00:48:40;14.60;99.90
42913;DHT22;50720;54.324;18.558;2023-06-14T00:51:10;14.60;99.90
42913;DHT22;50720;54.324;18.558;2023-06-14T00:53:39;14.70;99.90
42913;DHT22;50720;54.324;18.558;2023-06-14T00:56:14;14.80;99.90
42913;DHT22;50720;54.324;18.558;2023-06-14T00:58:43;14.90;99.90
42913;DHT22;50720;54.324;18.558;2023-06-14T01:01:12;15.00;99.90
42913;DHT22;50720;54.324;18.558;2023-06-14T01:03:43;15.00;99.90
42913;DHT22;50720;54.324;18.558;2023-06-14T01:06:15;15.10;99.90
42913;DHT22;50720;54.324;18.558;2023-06-14T01:08:57;15.10;99.90
42913;DHT22;50720;54.324;18.558;2023-06-14T01:11:31;15.20;99.90
42913;DHT22;50720;54.324;18.558;2023-06-14T01:14:01;15.20;99.90
42913;DHT22;50720;54.324;18.558;2023-06-14T01:16:31;15.20;99.90
42913;DHT22;50720;54.324;18.558;2023-06-14T01:19:05;15.20;99.90
42913;DHT22;50720;54.324;18.558;2023-06-14T01:21:34;15.10;99.90
42913;DHT22;50720;54.324;18.558;2023-06-14T01:24:10;15.10;99.90
42913;DHT22;50720;54.324;18.558;2023-06-14T01:26:40;15.10;99.90
42913;DHT22;50720;54.324;18.558;2023-06-14T01:29:13;15.20;99.90
42913;DHT22;50720;54.324;18.558;2023-06-14T01:31:45;15.20;99.90
42913;DHT22;50720;54.324;18.558;2023-06-14T01:34:15;15.20;99.90
42913;DHT22;50720;54.324;18.558;2023-06-14T01:36:44;15.10;99.90
42913;DHT22;50720;54.324;18.558;2023-06-14T01:39:15;15.10;99.90
42913;DHT22;50720;54.324;18.558;2023-06-14T01:41:45;15.10;99.90
42913;DHT22;50720;54.324;18.558;2023-06-14T01:44:16;15.00;99.90
42913;DHT22;50720;54.324;18.558;2023-06-14T01:46:46;14.90;99.90
42913;DHT22;50720;54.324;18.558;2023-06-14T01:49:16;14.90;99.90
42913;DHT22;50720;54.324;18.558;2023-06-14T01:51:45;14.90;99.90
42913;DHT22;50720;54.324;18.558;2023-06-14T01:54:15;14.90;99.90
42913;DHT22;50720;54.324;18.558;2023-06-14T01:56:45;14.90;99.90
42913;DHT22;50720;54.324;18.558;2023-06-14T01:59:14;14.80;99.90
42913;DHT22;50720;54.324;18.558;2023-06-14T02:01:43;14.80;99.90
42913;DHT22;50720;54.324;18.558;2023-06-14T02:04:13;14.70;99.90
42913;DHT22;50720;54.324;18.558;2023-06-14T02:06:43;14.80;99.90
42913;DHT22;50720;54.324;18.558;2023-06-14T02:09:12;14.70;99.90
42913;DHT22;50720;54.324;18.558;2023-06-14T02:11:43;14.80;99.90
42913;DHT22;50720;54.324;18.558;2023-06-14T02:14:12;14.80;99.90
42913;DHT22;50720;54.324;18.558;2023-06-14T02:16:42;14.80;99.90
42913;DHT22;50720;54.324;18.558;2023-06-14T02:19:16;14.90;99.90
42913;DHT22;50720;54.324;18.558;2023-06-14T02:21:46;14.80;99.90
42913;DHT22;50720;54.324;18.558;2023-06-14T02:24:15;14.90;99.90
42913;DHT22;50720;54.324;18.558;2023-06-14T02:26:46;14.90;99.90
42913;DHT22;50720;54.324;18.558;2023-06-14T02:29:16;15.00;99.90
42913;DHT22;50720;54.324;18.558;2023-06-14T02:31:46;14.90;99.90
42913;DHT22;50720;54.324;18.558;2023-06-14T02:34:16;15.00;99.90
42913;DHT22;50720;54.324;18.558;2023-06-14T02:36:47;15.00;99.90
42913;DHT22;50720;54.324;18.558;2023-06-14T02:39:17;15.00;99.90
42913;DHT22;50720;54.324;18.558;2023-06-14T02:41:50;15.10;99.90
42913;DHT22;50720;54.324;18.558;2023-06-14T02:44:19;15.10;99.90
42913;DHT22;50720;54.324;18.558;2023-06-14T02:46:48;15.20;99.90
42913;DHT22;50720;54.324;18.558;2023-06-14T02:49:17;15.20;99.90
42913;DHT22;50720;54.324;18.558;2023-06-14T02:51:47;15.20;99.90
42913;DHT22;50720;54.324;18.558;2023-06-14T02:54:15;15.20;99.90
42913;DHT22;50720;54.324;18.558;2023-06-14T02:56:45;15.30;99.90
42913;DHT22;50720;54.324;18.558;2023-06-14T02:59:16;15.30;99.90
42913;DHT22;50720;54.324;18.558;2023-06-14T03:01:47;15.30;99.90
42913;DHT22;50720;54.324;18.558;2023-06-14T03:04:16;15.40;99.90
42913;DHT22;50720;54.324;18.558;2023-06-14T03:06:45;15.40;99.90
42913;DHT22;50720;54.324;18.558;2023-06-14T03:09:17;15.50;99.90
42913;DHT22;50720;54.324;18.558;2023-06-14T03:11:47;15.60;99.90
42913;DHT22;50720;54.324;18.558;2023-06-14T03:14:18;15.50;99.90
42913;DHT22;50720;54.324;18.558;2023-06-14T03:16:49;15.50;99.90
42913;DHT22;50720;54.324;18.558;2023-06-14T03:19:24;15.60;99.90
42913;DHT22;50720;54.324;18.558;2023-06-14T03:21:53;15.70;99.90
42913;DHT22;50720;54.324;18.558;2023-06-14T03:24:24;15.70;99.90
42913;DHT22;50720;54.324;18.558;2023-06-14T03:26:55;15.70;99.90
42913;DHT22;50720;54.324;18.558;2023-06-14T03:29:25;15.60;99.90
42913;DHT22;50720;54.324;18.558;2023-06-14T03:31:58;15.70;99.90
42913;DHT22;50720;54.324;18.558;2023-06-14T03:34:28;15.80;99.90
42913;DHT22;50720;54.324;18.558;2023-06-14T03:36:58;15.90;99.90
42913;DHT22;50720;54.324;18.558;2023-06-14T03:39:27;15.90;99.90
42913;DHT22;50720;54.324;18.558;2023-06-14T03:41:56;15.90;99.90
42913;DHT22;50720;54.324;18.558;2023-06-14T03:44:26;15.90;99.90
42913;DHT22;50720;54.324;18.558;2023-06-14T03:46:56;15.90;99.90
42913;DHT22;50720;54.324;18.558;2023-06-14T03:49:25;15.90;99.90
42913;DHT22;50720;54.324;18.558;2023-06-14T03:51:55;16.00;99.90
42913;DHT22;50720;54.324;18.558;2023-06-14T03:54:24;16.00;99.90
42913;DHT22;50720;54.324;18.558;2023-06-14T03:57:14;16.00;99.90
42913;DHT22;50720;54.324;18.558;2023-06-14T03:59:44;16.00;99.90
42913;DHT22;50720;54.324;18.558;2023-06-14T04:02:15;16.00;99.90
42913;DHT22;50720;54.324;18.558;2023-06-14T04:04:45;16.10;99.90
42913;DHT22;50720;54.324;18.558;2023-06-14T04:07:16;16.00;99.90
42913;DHT22;50720;54.324;18.558;2023-06-14T04:09:46;16.00;99.90
42913;DHT22;50720;54.324;18.558;2023-06-14T04:12:16;16.10;99.90
42913;DHT22;50720;54.324;18.558;2023-06-14T04:14:46;16.10;99.90
42913;DHT22;50720;54.324;18.558;2023-06-14T04:17:16;16.10;99.90
42913;DHT22;50720;54.324;18.558;2023-06-14T04:19:45;16.00;99.90
42913;DHT22;50720;54.324;18.558;2023-06-14T04:22:15;16.10;99.90
42913;DHT22;50720;54.324;18.558;2023-06-14T04:24:44;16.10;99.90
42913;DHT22;50720;54.324;18.558;2023-06-14T04:27:27;16.10;99.90
42913;DHT22;50720;54.324;18.558;2023-06-14T04:30:00;16.10;99.90
42913;DHT22;50720;54.324;18.558;2023-06-14T04:32:30;16.10;99.90
42913;DHT22;50720;54.324;18.558;2023-06-14T04:35:01;16.10;99.90
42913;DHT22;50720;54.324;18.558;2023-06-14T04:37:31;16.10;99.90
42913;DHT22;50720;54.324;18.558;2023-06-14T04:40:00;16.10;99.90
42913;DHT22;50720;54.324;18.558;2023-06-14T04:42:38;16.20;99.90
42913;DHT22;50720;54.324;18.558;2023-06-14T04:45:09;16.30;99.90
42913;DHT22;50720;54.324;18.558;2023-06-14T04:47:40;16.30;99.90
42913;DHT22;50720;54.324;18.558;2023-06-14T04:50:09;16.30;99.90
42913;DHT22;50720;54.324;18.558;2023-06-14T04:52:40;16.50;99.90
42913;DHT22;50720;54.324;18.558;2023-06-14T04:55:10;16.50;99.90
42913;DHT22;50720;54.324;18.558;2023-06-14T04:57:39;16.60;99.90
42913;DHT22;50720;54.324;18.558;2023-06-14T05:00:11;16.50;99.90
42913;DHT22;50720;54.324;18.558;2023-06-14T05:02:42;16.50;99.90
42913;DHT22;50720;54.324;18.558;2023-06-14T05:05:11;16.60;99.90
42913;DHT22;50720;54.324;18.558;2023-06-14T05:07:40;16.70;99.90
42913;DHT22;50720;54.324;18.558;2023-06-14T05:10:10;16.80;99.90
42913;DHT22;50720;54.324;18.558;2023-06-14T05:12:39;17.00;99.90
42913;DHT22;50720;54.324;18.558;2023-06-14T05:15:12;17.00;99.90
42913;DHT22;50720;54.324;18.558;2023-06-14T05:17:44;17.10;99.90
42913;DHT22;50720;54.324;18.558;2023-06-14T05:20:18;17.20;99.90
42913;DHT22;50720;54.324;18.558;2023-06-14T05:22:47;17.30;99.90
42913;DHT22;50720;54.324;18.558;2023-06-14T05:25:17;17.40;99.90
42913;DHT22;50720;54.324;18.558;2023-06-14T05:27:46;17.50;99.90
42913;DHT22;50720;54.324;18.558;2023-06-14T05:30:17;17.60;99.90
42913;DHT22;50720;54.324;18.558;2023-06-14T05:32:46;17.70;99.90
42913;DHT22;50720;54.324;18.558;2023-06-14T05:35:16;17.80;99.90
42913;DHT22;50720;54.324;18.558;2023-06-14T05:37:46;17.90;99.90
42913;DHT22;50720;54.324;18.558;2023-06-14T05:40:15;17.90;99.90
42913;DHT22;50720;54.324;18.558;2023-06-14T05:42:45;18.00;99.90
42913;DHT22;50720;54.324;18.558;2023-06-14T05:45:14;18.10;99.90
42913;DHT22;50720;54.324;18.558;2023-06-14T05:47:46;18.10;99.90
42913;DHT22;50720;54.324;18.558;2023-06-14T05:50:15;18.10;99.90
42913;DHT22;50720;54.324;18.558;2023-06-14T05:52:45;18.20;99.90
42913;DHT22;50720;54.324;18.558;2023-06-14T05:55:15;18.40;99.90
42913;DHT22;50720;54.324;18.558;2023-06-14T05:57:45;18.60;99.90
42913;DHT22;50720;54.324;18.558;2023-06-14T06:00:15;18.70;99.90
42913;DHT22;50720;54.324;18.558;2023-06-14T06:02:47;18.70;99.90
42913;DHT22;50720;54.324;18.558;2023-06-14T06:05:16;18.80;99.90
42913;DHT22;50720;54.324;18.558;2023-06-14T06:07:46;18.90;99.90
42913;DHT22;50720;54.324;18.558;2023-06-14T06:10:15;19.10;99.90
42913;DHT22;50720;54.324;18.558;2023-06-14T06:12:44;19.10;99.90
42913;DHT22;50720;54.324;18.558;2023-06-14T06:15:14;19.20;99.90
42913;DHT22;50720;54.324;18.558;2023-06-14T06:17:44;19.20;99.90
42913;DHT22;50720;54.324;18.558;2023-06-14T06:20:23;19.30;99.90
42913;DHT22;50720;54.324;18.558;2023-06-14T06:22:57;19.50;99.90
42913;DHT22;50720;54.324;18.558;2023-06-14T06:25:26;19.50;99.90
42913;DHT22;50720;54.324;18.558;2023-06-14T06:27:57;19.60;99.90
42913;DHT22;50720;54.324;18.558;2023-06-14T06:30:26;19.60;99.90
42913;DHT22;50720;54.324;18.558;2023-06-14T06:32:56;19.60;99.90
42913;DHT22;50720;54.324;18.558;2023-06-14T06:35:27;19.70;99.90
42913;DHT22;50720;54.324;18.558;2023-06-14T06:37:57;19.70;99.90
42913;DHT22;50720;54.324;18.558;2023-06-14T06:40:26;19.70;99.90
42913;DHT22;50720;54.324;18.558;2023-06-14T06:42:56;19.70;99.90
42913;DHT22;50720;54.324;18.558;2023-06-14T06:45:25;19.90;99.90
42913;DHT22;50720;54.324;18.558;2023-06-14T06:47:55;19.90;99.90
42913;DHT22;50720;54.324;18.558;2023-06-14T06:50:24;19.90;99.90
42913;DHT22;50720;54.324;18.558;2023-06-14T06:52:55;20.10;99.90
42913;DHT22;50720;54.324;18.558;2023-06-14T06:55:24;20.30;99.90
42913;DHT22;50720;54.324;18.558;2023-06-14T06:57:54;20.40;99.90
42913;DHT22;50720;54.324;18.558;2023-06-14T07:00:23;20.50;99.90
42913;DHT22;50720;54.324;18.558;2023-06-14T07:02:55;20.50;99.90
42913;DHT22;50720;54.324;18.558;2023-06-14T07:05:24;20.50;99.90
42913;DHT22;50720;54.324;18.558;2023-06-14T07:07:55;20.60;99.90
42913;DHT22;50720;54.324;18.558;2023-06-14T07:10:24;20.80;99.90
42913;DHT22;50720;54.324;18.558;2023-06-14T07:12:54;20.90;99.90
42913;DHT22;50720;54.324;18.558;2023-06-14T07:15:23;20.90;99.90
42913;DHT22;50720;54.324;18.558;2023-06-14T07:17:52;21.00;99.90
42913;DHT22;50720;54.324;18.558;2023-06-14T07:20:21;20.80;99.90
42913;DHT22;50720;54.324;18.558;2023-06-14T07:22:52;20.80;99.90
42913;DHT22;50720;54.324;18.558;2023-06-14T07:25:22;20.90;99.90
42913;DHT22;50720;54.324;18.558;2023-06-14T07:27:53;21.00;99.90
42913;DHT22;50720;54.324;18.558;2023-06-14T07:30:22;21.00;99.90
42913;DHT22;50720;54.324;18.558;2023-06-14T07:32:54;21.10;99.90
42913;DHT22;50720;54.324;18.558;2023-06-14T07:35:23;21.20;99.90
42913;DHT22;50720;54.324;18.558;2023-06-14T07:39:55;21.30;99.90
42913;DHT22;50720;54.324;18.558;2023-06-14T07:42:25;21.40;99.90
42913;DHT22;50720;54.324;18.558;2023-06-14T07:44:54;21.50;99.90
42913;DHT22;50720;54.324;18.558;2023-06-14T07:47:24;21.60;99.90
42913;DHT22;50720;54.324;18.558;2023-06-14T07:52:50;21.60;99.90
42913;DHT22;50720;54.324;18.558;2023-06-14T07:55:22;21.60;99.90
42913;DHT22;50720;54.324;18.558;2023-06-14T07:57:53;21.90;99.90
42913;DHT22;50720;54.324;18.558;2023-06-14T08:00:23;21.80;99.90
42913;DHT22;50720;54.324;18.558;2023-06-14T08:02:54;22.00;99.90
42913;DHT22;50720;54.324;18.558;2023-06-14T08:05:28;22.00;99.90
42913;DHT22;50720;54.324;18.558;2023-06-14T08:07:59;21.90;99.90
42913;DHT22;50720;54.324;18.558;2023-06-14T08:10:30;21.90;99.90
42913;DHT22;50720;54.324;18.558;2023-06-14T08:13:01;21.90;99.90
42913;DHT22;50720;54.324;18.558;2023-06-14T08:15:31;22.00;99.90
42913;DHT22;50720;54.324;18.558;2023-06-14T08:18:02;22.20;99.90
42913;DHT22;50720;54.324;18.558;2023-06-14T08:20:32;22.30;99.90
42913;DHT22;50720;54.324;18.558;2023-06-14T08:23:04;22.50;99.90
42913;DHT22;50720;54.324;18.558;2023-06-14T08:25:35;22.50;99.90
42913;DHT22;50720;54.324;18.558;2023-06-14T08:28:06;22.40;99.90
42913;DHT22;50720;54.324;18.558;2023-06-14T08:30:36;22.50;99.90
42913;DHT22;50720;54.324;18.558;2023-06-14T08:33:08;22.80;99.90
42913;DHT22;50720;54.324;18.558;2023-06-14T08:35:45;22.70;99.90
42913;DHT22;50720;54.324;18.558;2023-06-14T08:38:22;22.80;99.50
42913;DHT22;50720;54.324;18.558;2023-06-14T08:41:04;22.90;99.30
42913;DHT22;50720;54.324;18.558;2023-06-14T08:43:36;22.70;98.90
42913;DHT22;50720;54.324;18.558;2023-06-14T08:46:08;22.60;99.10
42913;DHT22;50720;54.324;18.558;2023-06-14T08:48:41;22.60;98.40
42913;DHT22;50720;54.324;18.558;2023-06-14T08:51:18;22.50;98.10
42913;DHT22;50720;54.324;18.558;2023-06-14T08:53:53;22.40;98.00
42913;DHT22;50720;54.324;18.558;2023-06-14T08:56:26;22.40;99.20
42913;DHT22;50720;54.324;18.558;2023-06-14T08:58:57;22.30;98.50
42913;DHT22;50720;54.324;18.558;2023-06-14T09:01:28;22.30;98.50
42913;DHT22;50720;54.324;18.558;2023-06-14T09:04:04;22.40;98.00
42913;DHT22;50720;54.324;18.558;2023-06-14T09:06:34;22.40;97.70
42913;DHT22;50720;54.324;18.558;2023-06-14T09:09:04;22.50;97.70
42913;DHT22;50720;54.324;18.558;2023-06-14T09:11:41;22.50;97.20
42913;DHT22;50720;54.324;18.558;2023-06-14T09:14:11;22.50;97.90
42913;DHT22;50720;54.324;18.558;2023-06-14T09:16:40;22.70;96.70
42913;DHT22;50720;54.324;18.558;2023-06-14T09:19:10;23.00;96.70
42913;DHT22;50720;54.324;18.558;2023-06-14T09:21:47;23.00;96.30
42913;DHT22;50720;54.324;18.558;2023-06-14T09:24:16;23.10;95.40
42913;DHT22;50720;54.324;18.558;2023-06-14T09:26:48;23.30;95.80
42913;DHT22;50720;54.324;18.558;2023-06-14T09:29:17;23.50;95.10
42913;DHT22;50720;54.324;18.558;2023-06-14T09:31:50;23.60;95.20
42913;DHT22;50720;54.324;18.558;2023-06-14T09:34:20;23.80;95.00
42913;DHT22;50720;54.324;18.558;2023-06-14T09:36:50;23.80;94.60
42913;DHT22;50720;54.324;18.558;2023-06-14T09:39:20;23.80;94.10
42913;DHT22;50720;54.324;18.558;2023-06-14T09:41:50;24.00;93.50
42913;DHT22;50720;54.324;18.558;2023-06-14T09:44:20;23.70;93.80
42913;DHT22;50720;54.324;18.558;2023-06-14T09:46:49;23.80;92.30
42913;DHT22;50720;54.324;18.558;2023-06-14T09:49:19;23.60;93.30
42913;DHT22;50720;54.324;18.558;2023-06-14T09:51:49;23.90;92.20
42913;DHT22;50720;54.324;18.558;2023-06-14T09:54:20;23.90;93.10
42913;DHT22;50720;54.324;18.558;2023-06-14T09:56:52;24.10;92.60
42913;DHT22;50720;54.324;18.558;2023-06-14T09:59:22;24.10;91.20
42913;DHT22;50720;54.324;18.558;2023-06-14T10:01:57;23.90;91.90
42913;DHT22;50720;54.324;18.558;2023-06-14T10:04:27;23.80;91.50
42913;DHT22;50720;54.324;18.558;2023-06-14T10:06:58;23.90;90.40
42913;DHT22;50720;54.324;18.558;2023-06-14T10:09:29;23.90;90.40
42913;DHT22;50720;54.324;18.558;2023-06-14T10:12:01;24.10;90.00
42913;DHT22;50720;54.324;18.558;2023-06-14T10:14:30;24.20;89.80
42913;DHT22;50720;54.324;18.558;2023-06-14T10:17:03;24.50;89.20
42913;DHT22;50720;54.324;18.558;2023-06-14T10:19:36;24.50;89.50
42913;DHT22;50720;54.324;18.558;2023-06-14T10:22:08;24.70;88.60
42913;DHT22;50720;54.324;18.558;2023-06-14T10:24:40;24.90;88.70
42913;DHT22;50720;54.324;18.558;2023-06-14T10:27:11;24.90;88.10
42913;DHT22;50720;54.324;18.558;2023-06-14T10:30:04;24.90;89.80
42913;DHT22;50720;54.324;18.558;2023-06-14T10:32:34;25.30;86.80
42913;DHT22;50720;54.324;18.558;2023-06-14T10:35:04;25.20;85.30
42913;DHT22;50720;54.324;18.558;2023-06-14T10:37:34;25.30;83.90
42913;DHT22;50720;54.324;18.558;2023-06-14T10:40:04;25.10;85.40
42913;DHT22;50720;54.324;18.558;2023-06-14T10:42:36;25.00;86.70
42913;DHT22;50720;54.324;18.558;2023-06-14T10:45:06;25.20;86.00
42913;DHT22;50720;54.324;18.558;2023-06-14T10:47:35;25.20;85.80
42913;DHT22;50720;54.324;18.558;2023-06-14T10:50:06;25.30;84.40
42913;DHT22;50720;54.324;18.558;2023-06-14T10:52:37;25.30;80.70
42913;DHT22;50720;54.324;18.558;2023-06-14T10:55:09;26.00;79.30
42913;DHT22;50720;54.324;18.558;2023-06-14T10:57:42;26.60;75.30
42913;DHT22;50720;54.324;18.558;2023-06-14T11:00:19;27.60;75.30
42913;DHT22;50720;54.324;18.558;2023-06-14T11:03:08;28.20;71.20
42913;DHT22;50720;54.324;18.558;2023-06-14T11:05:51;28.40;68.60
42913;DHT22;50720;54.324;18.558;2023-06-14T11:08:40;29.20;66.90
42913;DHT22;50720;54.324;18.558;2023-06-14T11:11:15;29.00;66.40
42913;DHT22;50720;54.324;18.558;2023-06-14T11:13:46;28.90;68.20
42913;DHT22;50720;54.324;18.558;2023-06-14T11:16:16;29.20;65.50
42913;DHT22;50720;54.324;18.558;2023-06-14T11:18:46;29.20;64.30
42913;DHT22;50720;54.324;18.558;2023-06-14T11:21:17;29.10;62.80
42913;DHT22;50720;54.324;18.558;2023-06-14T11:23:50;28.90;61.60
42913;DHT22;50720;54.324;18.558;2023-06-14T11:26:26;29.10;62.80
42913;DHT22;50720;54.324;18.558;2023-06-14T11:28:57;29.00;62.40
42913;DHT22;50720;54.324;18.558;2023-06-14T11:31:27;29.50;61.80
42913;DHT22;50720;54.324;18.558;2023-06-14T11:33:57;29.20;59.60
42913;DHT22;50720;54.324;18.558;2023-06-14T11:36:27;28.70;58.10
42913;DHT22;50720;54.324;18.558;2023-06-14T11:38:58;28.40;61.10
42913;DHT22;50720;54.324;18.558;2023-06-14T11:41:32;28.60;61.80
42913;DHT22;50720;54.324;18.558;2023-06-14T11:44:03;28.80;62.20
42913;DHT22;50720;54.324;18.558;2023-06-14T11:46:33;28.70;62.30
42913;DHT22;50720;54.324;18.558;2023-06-14T11:49:03;28.60;63.20
42913;DHT22;50720;54.324;18.558;2023-06-14T11:51:32;28.30;63.50
42913;DHT22;50720;54.324;18.558;2023-06-14T11:54:02;28.10;59.60
42913;DHT22;50720;54.324;18.558;2023-06-14T11:56:32;28.10;60.20
42913;DHT22;50720;54.324;18.558;2023-06-14T11:59:03;28.00;62.80
42913;DHT22;50720;54.324;18.558;2023-06-14T12:01:35;28.50;61.50
42913;DHT22;50720;54.324;18.558;2023-06-14T12:04:06;28.80;58.80
42913;DHT22;50720;54.324;18.558;2023-06-14T12:06:36;28.80;61.00
42913;DHT22;50720;54.324;18.558;2023-06-14T12:09:07;29.20;61.10
42913;DHT22;50720;54.324;18.558;2023-06-14T12:11:41;29.40;59.60
42913;DHT22;50720;54.324;18.558;2023-06-14T12:14:12;29.70;59.70
42913;DHT22;50720;54.324;18.558;2023-06-14T12:16:41;29.50;59.30
42913;DHT22;50720;54.324;18.558;2023-06-14T12:19:13;29.10;61.60
42913;DHT22;50720;54.324;18.558;2023-06-14T12:21:45;28.90;59.80
42913;DHT22;50720;54.324;18.558;2023-06-14T12:24:16;28.20;62.10
42913;DHT22;50720;54.324;18.558;2023-06-14T12:26:46;28.10;61.60
42913;DHT22;50720;54.324;18.558;2023-06-14T12:29:18;27.90;62.00
42913;DHT22;50720;54.324;18.558;2023-06-14T12:31:49;27.40;61.20
42913;DHT22;50720;54.324;18.558;2023-06-14T12:34:18;27.40;63.60
42913;DHT22;50720;54.324;18.558;2023-06-14T12:36:47;27.40;61.40
42913;DHT22;50720;54.324;18.558;2023-06-14T12:39:16;27.50;62.20
42913;DHT22;50720;54.324;18.558;2023-06-14T12:41:46;27.60;60.20
42913;DHT22;50720;54.324;18.558;2023-06-14T12:44:17;27.50;61.10
42913;DHT22;50720;54.324;18.558;2023-06-14T12:46:47;27.80;60.60
42913;DHT22;50720;54.324;18.558;2023-06-14T12:49:18;27.80;60.70
42913;DHT22;50720;54.324;18.558;2023-06-14T12:51:48;27.80;61.00
42913;DHT22;50720;54.324;18.558;2023-06-14T12:54:17;27.40;62.20
42913;DHT22;50720;54.324;18.558;2023-06-14T12:57:07;27.30;63.40
42913;DHT22;50720;54.324;18.558;2023-06-14T12:59:38;27.20;63.20
42913;DHT22;50720;54.324;18.558;2023-06-14T13:02:12;27.20;63.40
42913;DHT22;50720;54.324;18.558;2023-06-14T13:04:41;27.00;63.80
42913;DHT22;50720;54.324;18.558;2023-06-14T13:07:10;26.80;63.00
42913;DHT22;50720;54.324;18.558;2023-06-14T13:09:39;26.60;62.80
42913;DHT22;50720;54.324;18.558;2023-06-14T13:12:09;26.50;63.70
42913;DHT22;50720;54.324;18.558;2023-06-14T13:14:41;26.50;62.60
42913;DHT22;50720;54.324;18.558;2023-06-14T13:17:11;26.30;62.00
42913;DHT22;50720;54.324;18.558;2023-06-14T13:19:40;26.40;63.60
42913;DHT22;50720;54.324;18.558;2023-06-14T13:22:10;26.70;65.40
42913;DHT22;50720;54.324;18.558;2023-06-14T13:24:39;26.80;64.70
42913;DHT22;50720;54.324;18.558;2023-06-14T13:27:08;27.30;63.30
42913;DHT22;50720;54.324;18.558;2023-06-14T13:29:38;27.70;63.50
42913;DHT22;50720;54.324;18.558;2023-06-14T13:32:09;28.20;62.60
42913;DHT22;50720;54.324;18.558;2023-06-14T13:34:38;28.10;62.70
42913;DHT22;50720;54.324;18.558;2023-06-14T13:37:07;28.10;62.00
42913;DHT22;50720;54.324;18.558;2023-06-14T13:39:36;27.70;63.20
42913;DHT22;50720;54.324;18.558;2023-06-14T13:42:06;27.20;63.00
42913;DHT22;50720;54.324;18.558;2023-06-14T13:44:35;26.50;65.10
42913;DHT22;50720;54.324;18.558;2023-06-14T13:47:05;25.90;67.20
42913;DHT22;50720;54.324;18.558;2023-06-14T13:49:36;25.50;67.50
42913;DHT22;50720;54.324;18.558;2023-06-14T13:52:06;24.80;69.00
42913;DHT22;50720;54.324;18.558;2023-06-14T13:54:35;24.40;70.50
42913;DHT22;50720;54.324;18.558;2023-06-14T13:57:05;24.20;72.60
42913;DHT22;50720;54.324;18.558;2023-06-14T13:59:34;24.10;74.00
42913;DHT22;50720;54.324;18.558;2023-06-14T14:02:04;24.10;75.70
42913;DHT22;50720;54.324;18.558;2023-06-14T14:04:33;24.20;75.80
42913;DHT22;50720;54.324;18.558;2023-06-14T14:07:04;24.40;76.20
42913;DHT22;50720;54.324;18.558;2023-06-14T14:09:34;24.40;77.30
42913;DHT22;50720;54.324;18.558;2023-06-14T14:12:05;24.50;77.00
42913;DHT22;50720;54.324;18.558;2023-06-14T14:14:34;24.90;74.20
42913;DHT22;50720;54.324;18.558;2023-06-14T14:17:04;25.40;74.50
42913;DHT22;50720;54.324;18.558;2023-06-14T14:19:34;25.90;73.90
42913;DHT22;50720;54.324;18.558;2023-06-14T14:22:05;26.50;72.90
42913;DHT22;50720;54.324;18.558;2023-06-14T14:24:34;26.90;71.00
42913;DHT22;50720;54.324;18.558;2023-06-14T14:27:04;27.00;71.80
42913;DHT22;50720;54.324;18.558;2023-06-14T14:29:34;27.10;69.70
42913;DHT22;50720;54.324;18.558;2023-06-14T14:32:04;26.30;70.80
42913;DHT22;50720;54.324;18.558;2023-06-14T14:34:33;25.90;71.60
42913;DHT22;50720;54.324;18.558;2023-06-14T14:37:05;25.60;72.10
42913;DHT22;50720;54.324;18.558;2023-06-14T14:39:34;25.50;73.30
42913;DHT22;50720;54.324;18.558;2023-06-14T14:42:04;25.40;73.60
42913;DHT22;50720;54.324;18.558;2023-06-14T14:44:34;25.00;72.60
42913;DHT22;50720;54.324;18.558;2023-06-14T14:47:03;24.90;72.20
42913;DHT22;50720;54.324;18.558;2023-06-14T14:49:33;24.60;72.30
42913;DHT22;50720;54.324;18.558;2023-06-14T14:52:03;24.10;72.80
42913;DHT22;50720;54.324;18.558;2023-06-14T14:54:50;23.80;73.20
42913;DHT22;50720;54.324;18.558;2023-06-14T14:57:19;23.70;74.20
42913;DHT22;50720;54.324;18.558;2023-06-14T14:59:48;23.40;74.60
42913;DHT22;50720;54.324;18.558;2023-06-14T15:02:18;23.10;75.60
42913;DHT22;50720;54.324;18.558;2023-06-14T15:04:48;23.00;76.70
42913;DHT22;50720;54.324;18.558;2023-06-14T15:07:17;23.00;77.30
42913;DHT22;50720;54.324;18.558;2023-06-14T15:09:46;23.10;74.90
42913;DHT22;50720;54.324;18.558;2023-06-14T15:12:19;23.10;75.10
42913;DHT22;50720;54.324;18.558;2023-06-14T15:14:50;23.10;75.70
42913;DHT22;50720;54.324;18.558;2023-06-14T15:17:20;23.10;76.20
42913;DHT22;50720;54.324;18.558;2023-06-14T15:19:52;23.10;77.00
42913;DHT22;50720;54.324;18.558;2023-06-14T15:22:21;23.20;77.20
42913;DHT22;50720;54.324;18.558;2023-06-14T15:24:50;23.20;76.10
42913;DHT22;50720;54.324;18.558;2023-06-14T15:27:21;23.80;75.00
42913;DHT22;50720;54.324;18.558;2023-06-14T15:29:50;24.10;73.30
42913;DHT22;50720;54.324;18.558;2023-06-14T15:32:21;24.10;72.80
42913;DHT22;50720;54.324;18.558;2023-06-14T15:34:50;24.40;73.90
42913;DHT22;50720;54.324;18.558;2023-06-14T15:37:19;24.30;73.90
42913;DHT22;50720;54.324;18.558;2023-06-14T15:39:48;24.10;75.60
42913;DHT22;50720;54.324;18.558;2023-06-14T15:42:17;23.90;75.20